createdAt,value
2018-04-22T00:00:38.592Z,19.30
2018-04-22T00:03:06.084Z,19.30
2018-04-22T00:05:34.321Z,19.20
2018-04-22T00:08:01.804Z,19.20
2018-04-22T00:10:29.273Z,19.20
2018-04-22T00:12:57.531Z,19.10
2018-04-22T00:15:24.998Z,19.10
2018-04-22T00:17:52.460Z,19.10
2018-04-22T00:20:21.726Z,19.10
2018-04-22T00:22:49.202Z,19.00
2018-04-22T00:25:16.689Z,19.00
2018-04-22T00:27:44.934Z,18.90
2018-04-22T00:30:12.410Z,18.90
2018-04-22T00:32:39.919Z,18.90
2018-04-22T00:35:07.410Z,18.90
2018-04-22T00:37:34.904Z,18.80
2018-04-22T00:40:03.135Z,18.80
2018-04-22T00:42:30.619Z,18.80
2018-04-22T00:44:58.094Z,18.80
2018-04-22T00:47:26.343Z,18.70
2018-04-22T00:49:53.812Z,18.70
2018-04-22T00:52:21.310Z,18.70
2018-04-22T00:54:48.791Z,18.70
2018-04-22T00:57:16.259Z,18.60
2018-04-22T00:59:43.758Z,18.60
2018-04-22T01:02:12.005Z,18.60
2018-04-22T01:04:40.272Z,18.60
2018-04-22T01:07:07.753Z,18.60
2018-04-22T01:09:35.232Z,18.50
2018-04-22T01:12:03.473Z,18.50
2018-04-22T01:14:30.962Z,18.50
2018-04-22T01:16:59.200Z,18.50
2018-04-22T01:19:26.668Z,18.50
2018-04-22T01:21:54.150Z,18.50
2018-04-22T01:24:22.388Z,18.50
2018-04-22T01:26:49.875Z,18.50
2018-04-22T01:29:17.345Z,18.50
2018-04-22T01:31:45.591Z,18.40
2018-04-22T01:34:13.078Z,18.40
2018-04-22T01:36:41.340Z,18.40
2018-04-22T01:39:09.593Z,18.40
2018-04-22T01:41:37.073Z,18.30
2018-04-22T01:44:04.560Z,18.30
2018-04-22T01:46:32.800Z,18.30
2018-04-22T01:49:00.280Z,18.30
2018-04-22T01:51:27.755Z,18.30
2018-04-22T01:53:56.004Z,18.20
2018-04-22T01:56:23.480Z,18.20
2018-04-22T01:58:51.751Z,18.10
2018-04-22T02:01:19.216Z,18.10
2018-04-22T02:03:47.450Z,18.10
2018-04-22T02:06:14.943Z,18.10
2018-04-22T02:08:44.203Z,18.10
2018-04-22T02:11:11.694Z,18.10
2018-04-22T02:13:39.156Z,18.10
2018-04-22T02:16:06.684Z,18.10
2018-04-22T02:18:34.164Z,18.10
2018-04-22T02:21:02.417Z,18.10
2018-04-22T02:23:29.884Z,18.10
2018-04-22T02:25:57.360Z,18.10
2018-04-22T02:28:24.836Z,18.10
2018-04-22T02:30:53.072Z,18.00
2018-04-22T02:33:20.613Z,18.00
2018-04-22T02:35:48.076Z,18.00
2018-04-22T02:38:15.578Z,18.00
2018-04-22T02:40:43.816Z,17.90
2018-04-22T02:43:11.311Z,17.90
2018-04-22T02:45:39.548Z,17.80
2018-04-22T02:48:07.020Z,17.80
2018-04-22T02:50:34.504Z,17.80
2018-04-22T02:53:02.732Z,17.80
2018-04-22T02:55:30.216Z,17.70
2018-04-22T02:57:57.689Z,17.80
2018-04-22T03:00:25.172Z,17.70
2018-04-22T03:02:53.406Z,17.70
2018-04-22T03:05:20.920Z,17.60
2018-04-22T03:07:48.422Z,17.60
2018-04-22T03:10:15.888Z,17.60
2018-04-22T03:12:43.367Z,17.60
2018-04-22T03:15:11.600Z,17.50
2018-04-22T03:17:39.088Z,17.50
2018-04-22T03:20:08.059Z,17.40
2018-04-22T03:22:35.574Z,17.40
2018-04-22T03:25:03.057Z,17.40
2018-04-22T03:27:30.544Z,17.40
2018-04-22T03:29:58.019Z,17.40
2018-04-22T03:32:25.484Z,17.40
2018-04-22T03:34:52.983Z,17.40
2018-04-22T03:37:20.453Z,17.30
2018-04-22T03:39:47.933Z,17.30
2018-04-22T03:42:15.408Z,17.30
2018-04-22T03:44:43.661Z,17.20
2018-04-22T03:47:11.132Z,17.20
2018-04-22T03:49:38.620Z,17.10
2018-04-22T03:52:06.862Z,17.20
2018-04-22T03:54:34.354Z,17.10
2018-04-22T03:57:02.590Z,17.10
2018-04-22T03:59:30.069Z,17.10
2018-04-22T04:01:57.555Z,17.10
2018-04-22T04:04:25.026Z,17.10
2018-04-22T04:06:52.527Z,17.10
2018-04-22T04:09:20.012Z,17.10
2018-04-22T04:11:48.260Z,17.10
2018-04-22T04:14:16.512Z,17.10
2018-04-22T04:16:44.024Z,17.00
2018-04-22T04:19:24.317Z,17.00
2018-04-22T04:22:03.771Z,17.00
2018-04-22T04:24:43.148Z,17.00
2018-04-22T04:27:23.520Z,17.00
2018-04-22T04:29:51.860Z,17.00
2018-04-22T04:32:19.445Z,17.00
2018-04-22T04:34:46.915Z,17.00
2018-04-22T04:37:15.155Z,16.90
2018-04-22T04:39:42.639Z,16.80
2018-04-22T04:42:10.105Z,16.80
2018-04-22T04:44:38.375Z,16.80
2018-04-22T04:47:06.608Z,16.70
2018-04-22T04:49:34.106Z,16.70
2018-04-22T04:52:01.580Z,16.70
2018-04-22T04:54:29.837Z,16.70
2018-04-22T04:56:57.308Z,16.70
2018-04-22T04:59:24.801Z,16.70
2018-04-22T05:01:52.278Z,16.60
2018-04-22T05:04:20.784Z,16.60
2018-04-22T05:06:48.295Z,16.60
2018-04-22T05:09:15.810Z,16.60
2018-04-22T05:11:43.280Z,16.60
2018-04-22T05:14:10.767Z,16.60
2018-04-22T05:16:38.262Z,16.70
2018-04-22T05:19:05.758Z,16.70
2018-04-22T05:21:35.013Z,16.80
2018-04-22T05:24:02.498Z,16.80
2018-04-22T05:26:29.976Z,16.80
2018-04-22T05:28:57.455Z,16.80
2018-04-22T05:31:25.695Z,16.90
2018-04-22T05:33:53.184Z,16.90
2018-04-22T05:36:21.424Z,16.80
2018-04-22T05:38:48.897Z,16.90
2018-04-22T05:41:17.892Z,16.90
2018-04-22T05:43:46.139Z,16.90
2018-04-22T05:46:13.624Z,16.90
2018-04-22T05:48:41.914Z,17.00
2018-04-22T05:51:10.176Z,17.00
2018-04-22T05:53:37.664Z,17.00
2018-04-22T05:56:05.188Z,17.10
2018-04-22T05:58:32.895Z,17.10
2018-04-22T06:01:00.484Z,17.20
2018-04-22T06:03:27.980Z,17.20
2018-04-22T06:05:57.138Z,17.30
2018-04-22T06:08:24.655Z,17.30
2018-04-22T06:10:53.083Z,17.40
2018-04-22T06:13:20.798Z,17.30
2018-04-22T06:15:49.040Z,17.50
2018-04-22T06:18:16.524Z,17.50
2018-04-22T06:20:44.783Z,17.50
2018-04-22T06:23:12.260Z,17.50
2018-04-22T06:25:40.533Z,17.70
2018-04-22T06:28:08.001Z,17.60
2018-04-22T06:30:36.262Z,17.80
2018-04-22T06:33:05.261Z,17.80
2018-04-22T06:35:33.518Z,17.90
2018-04-22T06:38:00.995Z,17.90
2018-04-22T06:40:28.490Z,18.00
2018-04-22T06:42:55.976Z,18.10
2018-04-22T06:45:23.457Z,18.20
2018-04-22T06:47:51.791Z,18.30
2018-04-22T06:50:19.307Z,18.30
2018-04-22T06:52:46.792Z,18.40
2018-04-22T06:55:14.280Z,18.50
2018-04-22T06:57:42.605Z,18.60
2018-04-22T07:00:10.903Z,18.70
2018-04-22T07:02:38.414Z,18.70
2018-04-22T07:05:05.917Z,18.70
2018-04-22T07:07:34.172Z,18.80
2018-04-22T07:10:01.656Z,18.80
2018-04-22T07:12:29.983Z,18.90
2018-04-22T07:14:57.448Z,18.90
2018-04-22T07:17:24.919Z,19.10
2018-04-22T07:19:52.401Z,19.10
2018-04-22T07:22:20.656Z,19.20
2018-04-22T07:24:48.140Z,19.20
2018-04-22T07:27:16.413Z,19.30
2018-04-22T07:29:44.668Z,19.30
2018-04-22T07:32:12.929Z,19.40
2018-04-22T07:34:40.420Z,19.40
2018-04-22T07:37:08.668Z,19.60
2018-04-22T07:39:36.148Z,19.60
2018-04-22T07:42:04.400Z,19.80
2018-04-22T07:44:31.867Z,19.80
2018-04-22T07:46:59.347Z,19.80
2018-04-22T07:49:27.593Z,19.90
2018-04-22T07:51:55.084Z,19.90
2018-04-22T07:54:23.328Z,20.20
2018-04-22T07:56:50.796Z,20.10
2018-04-22T07:59:18.322Z,20.20
2018-04-22T08:01:45.788Z,20.40
2018-04-22T08:04:13.268Z,20.60
2018-04-22T08:06:40.751Z,20.70
2018-04-22T08:09:09.022Z,21.00
2018-04-22T08:11:37.251Z,21.20
2018-04-22T08:14:05.505Z,21.30
2018-04-22T08:16:32.972Z,21.40
2018-04-22T08:19:00.443Z,21.50
2018-04-22T08:21:27.936Z,21.60
2018-04-22T08:23:55.400Z,21.70
2018-04-22T08:26:24.663Z,21.80
2018-04-22T08:28:52.239Z,21.80
2018-04-22T08:31:19.719Z,21.90
2018-04-22T08:33:47.956Z,22.10
2018-04-22T08:36:15.451Z,22.10
2018-04-22T08:38:42.919Z,22.10
2018-04-22T08:41:11.191Z,22.30
2018-04-22T08:43:39.438Z,22.50
2018-04-22T08:46:06.904Z,22.40
2018-04-22T08:48:34.390Z,22.60
2018-04-22T08:51:02.624Z,22.80
2018-04-22T08:53:30.116Z,22.80
2018-04-22T08:55:57.599Z,23.00
2018-04-22T08:58:25.440Z,23.20
2018-04-22T09:00:53.689Z,23.60
2018-04-22T09:03:21.164Z,23.60
2018-04-22T09:05:48.651Z,23.60
2018-04-22T09:08:16.886Z,23.70
2018-04-22T09:10:44.389Z,23.80
2018-04-22T09:13:12.619Z,23.80
2018-04-22T09:15:40.143Z,23.80
2018-04-22T09:18:07.620Z,23.90
2018-04-22T09:20:35.111Z,24.10
2018-04-22T09:23:02.593Z,24.20
2018-04-22T09:25:30.828Z,24.40
2018-04-22T09:27:58.316Z,24.40
2018-04-22T09:30:26.564Z,24.60
2018-04-22T09:32:54.046Z,24.70
2018-04-22T09:35:21.515Z,24.80
2018-04-22T09:37:49.779Z,25.10
2018-04-22T09:40:17.276Z,25.10
2018-04-22T09:42:44.759Z,25.10
2018-04-22T09:45:12.242Z,25.20
2018-04-22T09:49:26.649Z,25.40
2018-04-22T09:51:54.125Z,25.50
2018-04-22T09:54:21.603Z,25.60
2018-04-22T09:56:49.107Z,25.70
2018-04-22T09:59:17.335Z,26.00
2018-04-22T10:01:44.816Z,26.00
2018-04-22T10:04:12.288Z,26.10
2018-04-22T10:06:39.772Z,26.20
2018-04-22T10:09:07.241Z,26.30
2018-04-22T10:11:34.723Z,26.30
2018-04-22T10:14:02.236Z,26.40
2018-04-22T10:16:31.015Z,26.70
2018-04-22T10:18:58.448Z,26.60
2018-04-22T10:21:26.259Z,26.90
2018-04-22T10:23:53.821Z,26.90
2018-04-22T10:26:21.308Z,27.10
2018-04-22T10:28:48.780Z,27.10
2018-04-22T10:31:16.250Z,27.10
2018-04-22T10:33:43.746Z,27.20
2018-04-22T10:36:12.028Z,27.30
2018-04-22T10:38:39.472Z,27.30
2018-04-22T10:41:07.720Z,27.50
2018-04-22T10:43:35.188Z,27.40
2018-04-22T10:46:02.684Z,27.70
2018-04-22T10:48:30.160Z,27.80
2018-04-22T10:50:57.640Z,27.80
2018-04-22T10:53:25.173Z,27.70
2018-04-22T10:55:52.664Z,27.80
2018-04-22T10:58:20.139Z,27.90
2018-04-22T11:00:47.754Z,27.90
2018-04-22T11:03:15.262Z,28.00
2018-04-22T11:05:43.552Z,27.90
2018-04-22T11:08:11.796Z,28.00
2018-04-22T11:10:39.264Z,28.00
2018-04-22T11:13:06.746Z,28.00
2018-04-22T11:15:34.967Z,27.90
2018-04-22T11:18:02.453Z,27.90
2018-04-22T11:20:29.969Z,27.90
2018-04-22T11:22:57.473Z,27.80
2018-04-22T11:25:24.944Z,27.80
2018-04-22T11:27:52.408Z,27.80
2018-04-22T11:30:20.653Z,28.00
2018-04-22T11:32:48.127Z,27.90
2018-04-22T11:35:15.620Z,28.10
2018-04-22T11:37:43.121Z,28.30
2018-04-22T11:40:10.631Z,28.40
2018-04-22T11:42:38.857Z,28.60
2018-04-22T11:45:06.321Z,28.60
2018-04-22T11:47:33.800Z,28.80
2018-04-22T11:50:02.779Z,29.00
2018-04-22T11:52:30.299Z,29.00
2018-04-22T11:54:57.765Z,29.10
2018-04-22T11:57:25.256Z,29.20
2018-04-22T11:59:52.781Z,29.10
2018-04-22T12:02:20.980Z,29.30
2018-04-22T12:04:48.489Z,29.30
2018-04-22T12:07:15.992Z,29.40
2018-04-22T12:09:43.465Z,29.60
2018-04-22T12:12:10.939Z,29.80
2018-04-22T12:14:38.455Z,29.90
2018-04-22T12:17:05.932Z,30.00
2018-04-22T12:19:33.396Z,30.20
2018-04-22T12:22:00.881Z,30.30
2018-04-22T12:24:29.108Z,30.40
2018-04-22T12:26:56.592Z,30.30
2018-04-22T12:29:24.070Z,30.40
2018-04-22T12:31:51.603Z,30.50
2018-04-22T12:34:19.811Z,29.90
2018-04-22T12:36:48.232Z,29.60
2018-04-22T12:39:15.714Z,29.60
2018-04-22T12:41:43.180Z,29.40
2018-04-22T12:44:10.667Z,29.20
2018-04-22T12:46:38.904Z,28.80
2018-04-22T12:49:06.438Z,28.80
2018-04-22T12:51:33.900Z,28.60
2018-04-22T12:54:01.380Z,28.40
2018-04-22T12:56:28.864Z,28.20
2018-04-22T12:58:56.335Z,28.00
2018-04-22T13:01:23.871Z,27.90
2018-04-22T13:03:51.341Z,27.80
2018-04-22T13:06:18.822Z,27.70
2018-04-22T13:08:47.060Z,27.50
2018-04-22T13:11:14.516Z,27.50
2018-04-22T13:13:41.998Z,27.20
2018-04-22T13:16:09.464Z,26.30
2018-04-22T13:18:37.711Z,24.40
2018-04-22T13:21:05.184Z,24.40
2018-04-22T13:23:32.677Z,22.10
2018-04-22T13:26:00.204Z,20.40
2018-04-22T13:28:27.668Z,19.30
2018-04-22T13:30:55.931Z,18.20
2018-04-22T13:33:24.176Z,17.90
2018-04-22T13:35:51.786Z,17.90
2018-04-22T13:38:20.028Z,17.80
2018-04-22T13:40:47.500Z,17.80
2018-04-22T13:43:15.760Z,18.00
2018-04-22T13:45:43.240Z,18.00
2018-04-22T13:48:10.732Z,18.50
2018-04-22T13:50:38.215Z,18.80
2018-04-22T13:53:05.695Z,19.10
2018-04-22T13:55:33.253Z,19.80
2018-04-22T13:58:00.787Z,20.70
2018-04-22T14:00:28.317Z,21.20
2018-04-22T14:02:56.710Z,21.80
2018-04-22T14:05:24.954Z,21.80
2018-04-22T14:07:52.563Z,21.60
2018-04-22T14:10:20.054Z,21.20
2018-04-22T14:12:47.944Z,20.80
2018-04-22T14:15:17.013Z,20.60
2018-04-22T14:17:44.488Z,20.40
2018-04-22T14:20:11.976Z,20.20
2018-04-22T14:22:40.278Z,20.00
2018-04-22T14:25:07.870Z,20.00
2018-04-22T14:27:36.072Z,20.20
2018-04-22T14:30:04.315Z,20.30
2018-04-22T14:32:32.799Z,20.30
2018-04-22T14:35:00.290Z,20.30
2018-04-22T14:37:28.562Z,20.30
2018-04-22T14:39:56.858Z,20.30
2018-04-22T14:42:24.336Z,20.30
2018-04-22T14:45:03.784Z,20.10
2018-04-22T14:47:31.260Z,20.10
2018-04-22T14:49:58.748Z,20.10
2018-04-22T14:52:26.224Z,20.00
2018-04-22T14:54:54.535Z,20.00
2018-04-22T14:57:22.013Z,19.90
2018-04-22T14:59:49.482Z,20.00
2018-04-22T15:02:16.996Z,20.10
2018-04-22T15:04:44.491Z,20.20
2018-04-22T15:07:11.980Z,20.10
2018-04-22T15:09:40.232Z,20.10
2018-04-22T15:12:07.715Z,20.10
2018-04-22T15:14:35.213Z,20.20
2018-04-22T15:17:02.697Z,20.30
2018-04-22T15:19:30.286Z,20.40
2018-04-22T15:21:57.716Z,20.40
2018-04-22T15:24:25.216Z,20.30
2018-04-22T15:26:53.485Z,20.30
2018-04-22T15:29:20.992Z,20.30
2018-04-22T15:31:48.500Z,20.30
2018-04-22T15:34:15.995Z,20.40
2018-04-22T15:36:43.467Z,20.50
2018-04-22T15:39:10.967Z,20.60
2018-04-22T15:41:38.449Z,20.60
2018-04-22T15:44:06.743Z,21.00
2018-04-22T15:46:34.977Z,21.00
2018-04-22T15:49:03.277Z,21.10
2018-04-22T15:51:31.564Z,21.10
2018-04-22T15:53:59.831Z,21.20
2018-04-22T15:56:28.107Z,21.00
2018-04-22T15:58:56.342Z,20.80
2018-04-22T16:01:23.821Z,20.80
2018-04-22T16:03:51.333Z,20.80
2018-04-22T16:06:18.825Z,20.60
2018-04-22T16:08:46.314Z,20.70
2018-04-22T16:11:14.567Z,20.60
2018-04-22T16:13:42.046Z,20.60
2018-04-22T16:16:09.538Z,20.60
2018-04-22T16:18:36.999Z,20.70
2018-04-22T16:21:04.515Z,20.60
2018-04-22T16:23:31.992Z,20.60
2018-04-22T16:26:00.299Z,20.40
2018-04-22T16:28:27.804Z,20.30
2018-04-22T16:30:55.267Z,20.30
2018-04-22T16:33:22.781Z,20.30
2018-04-22T16:35:50.277Z,20.10
2018-04-22T16:38:17.767Z,19.60
2018-04-22T16:40:46.051Z,19.30
2018-04-22T16:43:13.527Z,19.20
2018-04-22T16:45:41.048Z,19.30
2018-04-22T16:48:09.296Z,19.40
2018-04-22T16:50:36.882Z,19.40
2018-04-22T16:53:04.359Z,19.40
2018-04-22T16:55:31.835Z,19.40
2018-04-22T16:57:59.335Z,19.40
2018-04-22T17:00:26.858Z,19.40
2018-04-22T17:02:54.387Z,19.50
2018-04-22T17:05:22.699Z,19.60
2018-04-22T17:07:51.092Z,19.60
2018-04-22T17:10:18.568Z,19.70
2018-04-22T17:12:46.095Z,19.70
2018-04-22T17:15:13.592Z,19.80
2018-04-22T17:17:41.092Z,19.90
2018-04-22T17:20:08.571Z,20.10
2018-04-22T17:22:36.086Z,20.20
2018-04-22T17:25:03.563Z,20.40
2018-04-22T17:27:31.822Z,20.60
2018-04-22T17:29:59.356Z,20.50
2018-04-22T17:32:26.847Z,20.60
2018-04-22T17:34:55.140Z,20.70
2018-04-22T17:37:22.611Z,20.60
2018-04-22T17:39:50.176Z,20.60
2018-04-22T17:42:17.719Z,20.60
2018-04-22T17:44:45.215Z,20.60
2018-04-22T17:47:12.775Z,20.70
2018-04-22T17:49:40.283Z,20.70
2018-04-22T17:52:08.528Z,20.80
2018-04-22T17:54:36.808Z,20.90
2018-04-22T17:57:04.335Z,20.80
2018-04-22T17:59:31.832Z,20.90
2018-04-22T18:01:59.315Z,21.00
2018-04-22T18:04:27.580Z,20.90
2018-04-22T18:06:55.075Z,20.90
2018-04-22T18:09:22.546Z,20.80
2018-04-22T18:11:50.057Z,20.70
2018-04-22T18:14:18.324Z,20.60
2018-04-22T18:16:45.808Z,20.60
2018-04-22T18:19:14.066Z,20.50
2018-04-22T18:21:42.315Z,20.50
2018-04-22T18:24:09.847Z,20.40
2018-04-22T18:26:37.327Z,20.40
2018-04-22T18:29:05.018Z,20.30
2018-04-22T18:31:32.531Z,20.30
2018-04-22T18:34:00.083Z,20.30
2018-04-22T18:36:27.624Z,20.30
2018-04-22T18:38:55.163Z,20.30
2018-04-22T18:41:23.420Z,20.20
2018-04-22T18:43:50.915Z,20.10
2018-04-22T18:46:19.192Z,20.20
2018-04-22T18:48:46.747Z,20.10
2018-04-22T18:51:15.009Z,20.20
2018-04-22T18:53:42.531Z,20.20
2018-04-22T18:56:10.020Z,20.20
2018-04-22T18:58:37.488Z,20.20
2018-04-22T19:01:05.763Z,20.10
2018-04-22T19:03:33.229Z,20.10
2018-04-22T19:06:01.525Z,20.00
2018-04-22T19:08:29.016Z,20.00
2018-04-22T19:10:56.492Z,20.00
2018-04-22T19:13:23.980Z,20.10
2018-04-22T19:15:52.293Z,20.20
2018-04-22T19:18:19.799Z,20.20
2018-04-22T19:20:47.283Z,20.30
2018-04-22T19:23:14.767Z,20.30
2018-04-22T19:25:42.264Z,20.20
2018-04-22T19:28:09.750Z,20.20
2018-04-22T19:30:38.019Z,20.20
2018-04-22T19:33:05.504Z,20.20
2018-04-22T19:35:32.985Z,20.20
2018-04-22T19:38:00.496Z,20.10
2018-04-22T19:40:27.999Z,20.10
2018-04-22T19:42:55.472Z,20.10
2018-04-22T19:45:22.958Z,20.10
2018-04-22T19:47:50.443Z,20.10
2018-04-22T19:50:18.700Z,20.10
2018-04-22T19:52:46.167Z,20.10
2018-04-22T19:55:14.403Z,20.00
2018-04-22T19:57:41.893Z,20.00
2018-04-22T20:00:10.184Z,19.90
2018-04-22T20:02:38.455Z,19.90
2018-04-22T20:05:06.700Z,20.00
2018-04-22T20:07:34.188Z,19.90
2018-04-22T20:10:02.506Z,19.90
2018-04-22T20:12:30.042Z,19.90
2018-04-22T20:14:58.315Z,20.00
2018-04-22T20:17:26.552Z,20.00
2018-04-22T20:19:54.060Z,20.00
2018-04-22T20:22:21.544Z,20.00
2018-04-22T20:24:49.025Z,20.00
2018-04-22T20:27:16.511Z,20.00
2018-04-22T20:29:43.983Z,20.00
2018-04-22T20:32:12.232Z,19.90
2018-04-22T20:34:39.749Z,19.90
2018-04-22T20:37:07.231Z,19.90
2018-04-22T20:39:34.728Z,19.80
2018-04-22T20:42:02.963Z,19.70
2018-04-22T20:44:30.442Z,19.70
2018-04-22T20:46:57.931Z,19.70
2018-04-22T20:49:26.249Z,19.60
2018-04-22T20:51:53.747Z,19.60
2018-04-22T20:54:21.237Z,19.70
2018-04-22T20:56:48.706Z,19.70
2018-04-22T20:59:16.224Z,19.70
2018-04-22T21:01:43.712Z,19.70
2018-04-22T21:04:11.217Z,19.70
2018-04-22T21:06:38.681Z,19.80
2018-04-22T21:09:07.672Z,19.80
2018-04-22T21:11:35.172Z,19.80
2018-04-22T21:14:02.701Z,19.90
2018-04-22T21:16:31.735Z,19.90
2018-04-22T21:18:59.208Z,19.90
2018-04-22T21:21:26.685Z,19.90
2018-04-22T21:23:54.171Z,19.80
2018-04-22T21:26:21.724Z,19.70
2018-04-22T21:28:49.207Z,19.70
2018-04-22T21:31:17.476Z,19.60
2018-04-22T21:33:44.958Z,19.50
2018-04-22T21:36:13.221Z,19.50
2018-04-22T21:38:41.472Z,19.50
2018-04-22T21:41:10.489Z,19.50
2018-04-22T21:43:38.732Z,19.50
2018-04-22T21:46:06.196Z,19.40
2018-04-22T21:48:33.936Z,19.40
2018-04-22T21:51:01.408Z,19.50
2018-04-22T21:53:28.900Z,19.60
2018-04-22T21:55:57.148Z,19.70
2018-04-22T21:58:24.613Z,19.70
2018-04-22T22:00:52.100Z,19.80
2018-04-22T22:03:20.340Z,19.90
2018-04-22T22:05:47.838Z,19.80
2018-04-22T22:08:16.085Z,19.80
2018-04-22T22:10:43.564Z,19.80
2018-04-22T22:13:11.834Z,19.60
2018-04-22T22:15:39.339Z,19.60
2018-04-22T22:18:06.824Z,19.60
2018-04-22T22:20:34.291Z,19.50
2018-04-22T22:23:01.768Z,19.40
2018-04-22T22:25:29.257Z,19.40
2018-04-22T22:27:56.734Z,19.30
2018-04-22T22:30:24.237Z,19.30
2018-04-22T22:32:51.709Z,19.10
2018-04-22T22:35:19.951Z,19.00
2018-04-22T22:37:47.482Z,19.00
2018-04-22T22:40:14.963Z,19.00
2018-04-22T22:42:42.459Z,18.90
2018-04-22T22:45:09.932Z,18.80
2018-04-22T22:47:38.239Z,18.80
2018-04-22T22:50:05.723Z,18.80
2018-04-22T22:52:33.192Z,18.80
2018-04-22T22:55:00.667Z,18.80
2018-04-22T22:57:28.135Z,18.70
2018-04-22T22:59:56.365Z,18.60
2018-04-22T23:02:23.854Z,18.60
2018-04-22T23:04:51.324Z,18.70
2018-04-22T23:07:19.588Z,18.70
2018-04-22T23:09:47.074Z,18.70
2018-04-22T23:12:15.328Z,18.50
2018-04-22T23:14:42.809Z,18.40
2018-04-22T23:17:11.043Z,18.50
2018-04-22T23:19:38.799Z,18.40
2018-04-22T23:22:06.268Z,18.50
2018-04-22T23:24:33.746Z,18.50
2018-04-22T23:27:01.232Z,18.50
2018-04-22T23:29:28.704Z,18.50
2018-04-22T23:31:56.266Z,18.50
2018-04-22T23:34:23.739Z,18.50
2018-04-22T23:36:51.216Z,18.50
2018-04-22T23:39:18.695Z,18.50
2018-04-22T23:41:46.183Z,18.50
2018-04-22T23:44:13.680Z,18.60
2018-04-22T23:46:41.143Z,18.60
2018-04-22T23:49:08.610Z,18.70
2018-04-22T23:51:36.096Z,18.70
2018-04-22T23:54:04.324Z,18.90
2018-04-22T23:56:31.825Z,18.90
2018-04-22T23:59:00.069Z,18.80
